• Join FlightAware (Why Join?)
  • Login
  • US Flag 
03:18PM EDT


 

Airport Tracker/Info


-or-


 

Live Flight TrackerFlight Track Log ✈ N662AA ✈ 05-May-2012 ✈ KBOS - KMIA

Flight Track Log - Related Links

Times and Time Zones

All times are in EDT time to prevent confusion due to time zone crossing. See the N662AA flight status page for this flight to view local times or setup timezone preferences in your user account.

Time Position Orientation Groundspeed Altitude Reporting Facility
EDT Latitude Longitude Course Direction KTS MPH feet Rate Location/Type
08:10AM 42.3667 -70.9667 135° Southeast 167 192 700  Level Boston TRACON
08:15AM 42.1936 -70.7336 180° South 287 330 12,800 2,220 Climbing Boston Center
08:16AM 42.0853 -70.7336 181° South 329 379 15,100 2,220 Climbing Boston Center
08:17AM 41.9750 -70.7367 183° South 374 430 17,300 2,100 Climbing Boston Center
08:18AM 41.8606 -70.7453 197° South 398 458 19,300 1,860 Climbing Boston Center
08:19AM 41.7464 -70.7928 228° Southwest 420 483 21,100 1,740 Climbing Boston Center
08:20AM 41.6708 -70.9061 225° Southwest 394 453 22,800 1,620 Climbing Boston Center
08:21AM 41.5892 -71.0161 226° Southwest 406 467 24,400 1,740 Climbing Boston Center
08:22AM 41.5069 -71.1289 224° Southwest 422 486 26,300 1,800 Climbing Boston Center
08:23AM 41.4186 -71.2414 228° Southwest 433 498 28,100 1,560 Climbing Boston Center
08:24AM 41.3344 -71.3647 224° Southwest 438 504 29,500 1,680 Climbing Boston Center
08:25AM 41.2417 -71.4822 224° Southwest 450 518 31,500 1,920 Climbing Boston Center
08:26AM 41.1511 -71.5967 224° Southwest 455 524 33,400 1,740 Climbing Boston Center
08:27AM 41.0622 -71.7106 229° Southwest 455 524 35,000 1,440 Climbing Boston Center
08:28AM 40.9753 -71.8408 223° Southwest 456 525 36,300 1,260 Climbing Boston Center
08:29AM 40.8864 -71.9514 225° Southwest 461 531 37,600 1,200 Climbing Boston Center
08:30AM 40.7950 -72.0700 226° Southwest 454 522 38,800 900 Climbing Boston Center
08:31AM 40.7161 -72.1772 224° Southwest 459 528 39,500 600 Climbing Boston Center
08:32AM 40.6228 -72.2953 227° Southwest 459 528 40,000 240 Climbing Boston Center
08:33AM 40.5372 -72.4156 222° Southwest 459 528 40,000  Level Boston Center
08:34AM 40.4436 -72.5247 224° Southwest 459 528 40,000  Level Boston Center
08:35AM 40.3517 -72.6417 226° Southwest 452 520 40,000  Level Boston Center
08:36AM 40.2661 -72.7583 224° Southwest 458 527 40,000  Level Boston Center
08:37AM 40.1719 -72.8772 224° Southwest 464 534 40,000  Level Boston Center
08:38AM 40.0839 -72.9878 225° Southwest 459 528 40,000  Level Boston Center
08:39AM 39.9936 -73.1036 224° Southwest 459 528 40,000  Level Boston Center
08:40AM 39.9014 -73.2189 225° Southwest 459 528 40,000  Level Boston Center
08:42AM 39.7806 -73.3747 224° Southwest 435 501 40,000  Level Washington Center
08:43AM 39.6889 -73.4908 224° Southwest 430 495 40,000  Level Washington Center
08:44AM 39.5950 -73.6067 224° Southwest 449 517 40,000  Level Washington Center
08:45AM 39.5031 -73.7222 216° Southwest 457 526 40,000  Level Washington Center
08:46AM 39.3881 -73.8300 207° Southwest 463 533 40,000  Level Washington Center
08:47AM 39.2681 -73.9081 204° Southwest 474 545 40,000  Level Washington Center
08:48AM 39.1442 -73.9806 206° Southwest 481 554 40,000  Level Washington Center
08:49AM 39.0242 -74.0553 207° Southwest 486 559 40,000  Level Washington Center
08:50AM 38.9083 -74.1325 206° Southwest 476 548 40,000  Level Washington Center
08:51AM 38.7883 -74.2067 206° Southwest 482 555 40,000  Level Washington Center
08:52AM 38.6683 -74.2808 206° Southwest 482 555 40,000  Level Washington Center
08:53AM 38.5483 -74.3547 204° Southwest 482 555 40,000  Level Washington Center
08:54AM 38.4281 -74.4231 206° Southwest 482 555 40,000  Level Washington Center
08:55AM 38.3078 -74.4989 206° Southwest 482 555 40,000  Level Washington Center
08:56AM 38.1875 -74.5719 205° Southwest 482 555 40,000  Level Washington Center
08:57AM 38.0692 -74.6422 209° Southwest 482 555 40,000  Level Washington Center
08:58AM 37.9572 -74.7200 205° Southwest 472 543 40,000  Level Washington Center
08:59AM 37.8367 -74.7897 205° Southwest 472 543 40,000  Level Washington Center
09:00AM 37.7183 -74.8594 205° Southwest 472 543 40,000  Level Washington Center
09:01AM 37.5997 -74.9286 205° Southwest 472 543 40,000  Level Washington Center
09:02AM 37.4833 -74.9978 205° Southwest 467 537 40,000  Level Washington Center
09:03AM 37.3647 -75.0667 206° Southwest 467 537 40,000  Level Washington Center
09:04AM 37.2461 -75.1381 205° Southwest 467 537 40,000  Level Washington Center
09:05AM 37.1275 -75.2064 205° Southwest 462 532 40,000  Level Washington Center
09:06AM 37.0108 -75.2747 204° Southwest 462 532 40,000  Level Washington Center
09:07AM 36.8900 -75.3425 205° Southwest 467 537 40,000  Level Washington Center
09:08AM 36.7692 -75.4131 205° Southwest 472 543 40,000  Level Washington Center
09:09AM 36.6483 -75.4833 205° Southwest 472 543 40,000  Level Washington Center
09:10AM 36.5253 -75.5533 205° Southwest 478 550 40,000  Level Washington Center
09:11AM 36.4167 -75.6153 204° Southwest 478 550 40,000  Level Washington Center
09:12AM 36.3000 -75.6797 207° Southwest 478 550 40,000  Level Washington Center
09:13AM 36.1767 -75.7567 203° Southwest 478 550 40,000  Level Washington Center
09:14AM 36.0578 -75.8206 204° Southwest 478 550 40,000  Level Washington Center
09:15AM 35.9344 -75.8869 206° Southwest 478 550 40,000  Level Washington Center
09:16AM 35.8153 -75.9583 204° Southwest 483 556 40,000  Level Washington Center
09:17AM 35.6942 -76.0242 205° Southwest 483 556 40,000  Level Washington Center
09:18AM 35.5750 -76.0925 204° Southwest 483 556 40,000  Level Washington Center
09:19AM 35.4558 -76.1581 205° Southwest 478 550 40,000  Level Washington Center
09:20AM 35.3344 -76.2286 205° Southwest 478 550 40,000  Level Washington Center
09:21AM 35.2131 -76.2964 206° Southwest 478 550 40,000  Level Washington Center
09:22AM 35.0978 -76.3639 205° Southwest 478 550 40,100  Climbing Washington Center
09:23AM 34.9764 -76.4336 203° Southwest 473 544 40,100  Level Washington Center
09:24AM 34.8547 -76.4956 204° Southwest 473 544 40,100  Level Washington Center
09:25AM 34.7311 -76.5625 204° Southwest 479 551 40,100  Level Washington Center
09:26AM 34.6117 -76.6267 205° Southwest 479 551 40,100  Level Washington Center
09:27AM 34.4942 -76.6933 203° Southwest 479 551 40,100  Level Washington Center
09:28AM 34.3728 -76.7572 204° Southwest 479 551 40,100  Level Washington Center
09:29AM 34.2531 -76.8208 204° Southwest 479 551 40,100  Level Washington Center
09:30AM 34.1314 -76.8867 204° Southwest 479 551 40,100  Level Washington Center
09:31AM 34.0119 -76.9500 204° Southwest 479 551 40,100  Level Washington Center
09:32AM 33.8922 -77.0156 204° Southwest 479 551 40,100  Level Washington Center
09:34AM 33.6225 -77.1589 203° Southwest 485 558 40,100  Level Jacksonville Center
09:35AM 33.5025 -77.2214 204° Southwest 485 558 40,100  Level Jacksonville Center
09:36AM 33.3800 -77.2864 204° Southwest 485 558 40,100  Level Jacksonville Center
09:37AM 33.2597 -77.3511 203° Southwest 485 558 40,100  Level Jacksonville Center
09:38AM 33.1372 -77.4133 205° Southwest 480 552 40,100  Level Jacksonville Center
09:39AM 33.0150 -77.4803 204° Southwest 480 552 40,100  Level Jacksonville Center
09:40AM 32.8947 -77.5442 202° Southwest 475 547 40,100  Level Jacksonville Center
09:41AM 32.7739 -77.6033 205° Southwest 475 547 40,100  Level Jacksonville Center
09:42AM 32.6536 -77.6694 204° Southwest 475 547 40,100  Level Jacksonville Center
09:43AM 32.5311 -77.7333 203° Southwest 475 547 40,100  Level Jacksonville Center
09:44AM 32.4083 -77.7944 205° Southwest 475 547 40,100  Level Jacksonville Center
09:45AM 32.2878 -77.8600 203° Southwest 475 547 40,100  Level Jacksonville Center
09:46AM 32.1669 -77.9208 203° Southwest 480 552 40,100  Level Jacksonville Center
09:47AM 32.0442 -77.9836 203° Southwest 475 547 40,100  Level Jacksonville Center
09:48AM 31.9233 -78.0439 205° Southwest 475 547 40,100  Level Jacksonville Center
09:49AM 31.8172 -78.1033 201° Southwest 475 547 40,100  Level Jacksonville Center
09:50AM 31.6939 -78.1586 205° Southwest 470 541 40,100  Level Jacksonville Center
09:51AM 31.5692 -78.2258 203° Southwest 476 548 40,100 -60 Level Jacksonville Center
09:52AM 31.4522 -78.2853 203° Southwest 477 549 40,000 -60 Descending Jacksonville Center
09:53AM 31.3272 -78.3472 204° Southwest 477 549 40,000  Level Jacksonville Center
09:54AM 31.2022 -78.4117 202° Southwest 477 549 40,000  Level Jacksonville Center
09:55AM 31.0811 -78.4683 202° Southwest 482 555 40,000  Level Jacksonville Center
09:56AM 30.9292 -78.5408 204° Southwest 511 588 40,000  Level Jacksonville Center
09:57AM 30.8081 -78.6044 203° Southwest 506 582 40,000  Level Jacksonville Center
09:58AM 30.6828 -78.6658 195° South 499 574 40,000  Level Jacksonville Center
09:59AM 30.5164 -78.7189 188° South 474 545 40,000  Level Miami Center
10:00AM 30.3806 -78.7406 189° South 479 551 40,000  Level Miami Center
10:01AM 30.2489 -78.7647 188° South 491 565 40,000  Level Miami Center
10:02AM 30.1131 -78.7861 188° South 497 572 40,000  Level Miami Center
10:03AM 29.9856 -78.8078 190° South 482 555 40,100 -480 Climbing Miami Center
10:04AM 29.8581 -78.8342 188° South 476 548 39,100 -1,320 Descending Miami Center
10:05AM 29.7200 -78.8556 185° South 489 563 37,500 -1,380 Descending Miami Center
10:06AM 29.5864 -78.8700 186° South 489 563 36,400 -1,260 Descending Miami Center
10:07AM 29.4506 -78.8864 187° South 488 562 35,000 -1,500 Descending Miami Center
10:08AM 29.3189 -78.9056 187° South 488 562 33,500 -1,440 Descending Miami Center
10:09AM 29.1853 -78.9244 187° South 488 562 32,200 -780 Descending Miami Center
10:10AM 29.0492 -78.9431 187° South 488 562 32,000 -120 Descending Miami Center
10:11AM 28.9114 -78.9619 186° South 493 567 32,000  Level Miami Center
10:12AM 28.7733 -78.9783 187° South 493 567 32,000  Level Miami Center
10:13AM 28.6417 -78.9969 185° South 493 567 32,000  Level Miami Center
10:14AM 28.5036 -79.0108 189° South 493 567 32,000  Level Miami Center
10:15AM 28.3761 -79.0344 192° South 488 562 32,000  Level Miami Center
10:16AM 28.2439 -79.0650 195° South 483 556 32,000  Level Miami Center
10:17AM 28.1161 -79.1047 195° South 477 549 32,000  Level Miami Center
10:18AM 27.9861 -79.1444 196° South 477 549 32,000  Level Miami Center
10:19AM 27.8622 -79.1844 194° South 477 549 32,000  Level Miami Center
10:20AM 27.7322 -79.2217 196° South 476 548 32,000 -60 Level Miami Center
10:21AM 27.6019 -79.2633 195° South 488 562 31,900 -1,080 Descending Miami Center
10:22AM 27.4867 -79.2986 195° South 488 562 29,900 -2,100 Descending Miami Center
10:23AM 27.3606 -79.3356 198° South 476 548 27,800 -2,580 Descending Miami Center
10:24AM 27.2239 -79.3864 204° Southwest 476 548 24,800 -2,400 Descending Miami Center
10:25AM 27.1103 -79.4422 202° Southwest 459 528 23,100 -1,620 Descending Miami Center
10:26AM 26.9967 -79.4933 201° Southwest 451 519 21,600 -1,500 Descending Miami Center
10:27AM 26.8975 -79.5353 203° Southwest 433 498 20,200 -1,500 Descending Miami Center
10:28AM 26.7903 -79.5864 202° Southwest 433 498 18,700 -1,440 Descending Miami Center
10:29AM 26.6869 -79.6328 203° Southwest 420 483 17,400 -1,200 Descending Miami Center
10:30AM 26.5878 -79.6792 202° Southwest 403 464 16,300 -720 Descending Miami Center
10:31AM 26.4889 -79.7233 230° Southwest 391 450 16,000 -180 Descending Miami Center
10:32AM 26.4158 -79.8189 233° Southwest 361 415 16,000 -360 Level Miami Center
10:33AM 26.3619 -79.8989 224° Southwest 361 415 15,300 -1,380 Descending Miami Center
10:34AM 26.2831 -79.9825 211° Southwest 361 415 13,300 -1,800 Descending Miami Center
10:35AM 26.2153 -80.0272 193° South 342 394 11,800 -1,500 Descending Miami Center
10:36AM 26.1250 -80.0500 193° South 331 381 10,300 -1,200 Descending Miami Center
10:37AM 26.0450 -80.0711 196° South 319 367 9,400 -1,200 Descending Miami Center
10:38AM 25.9714 -80.0944 232° Southwest 296 341 8,000 -720 Descending Miami Center
10:39AM 25.9219 -80.1647 253° West 273 314 8,000 -120 Level Miami Center
10:40AM 25.9011 -80.2428 283° West 268 308 7,800 -780 Descending Miami Center
10:41AM 25.9239 -80.3497 276° West 207 238 6,200 -1,380 Descending Miami Center
10:42AM 25.9289 -80.4006 208° Southwest 188 216 4,700 -1,680 Descending Miami Center
10:44AM 25.8844 -80.4269 143° Southeast 179 206 2,900 -1,260 Descending Miami Center
10:45AM 25.8475 -80.3958 143° Southeast 146 168 2,000 -840 Descending Miami Center